Accueil
METAR-TAF:

METAR-TAF

Aéroports :

Aéroport international de Tunis-Carthage

Tunis, Tunisie

latitude: 36-50N, longitude: 010-14E, altitude: 3 m

Observation

Le bulletin a été fait il y a 16 minutes, à 22:30 UTC
Vent 2 kt de nord/nord-ouest
Température 20°C
Humidité 88%
Pression 1018 hPa
Visibilité 10 km ou plus
Quelques nuages à une hauteur de 2600 ft

METAR: DTTA 202230Z 34002KT 9999 FEW026 20/18 Q1018 NOSIG

Heure: 23:46 (22:46 UTC)

Prévision

Le bulletin a été fait il y a 4 heures et 50 minutes, à 17:56 UTC
Prévision valable du 20 à 18 UTC au 21 à 18 UTC
Vent 10 kt de nord
Visibilité 10 km ou plus
Quelques nuages à une hauteur de 2600 ft
Probabilité 40% :
Temporairement
du 20 à 18 UTC au 20 à 24 UTC
Visibilité: 4000 m
Quelques nuages à une hauteur de 2300 ft, Cumulonimbus.
orage, pluie faible

TAF: DTTA 201756Z 2018/2118 01010KT 9999 FEW026 PROB40 TEMPO 2018/2024 4000 -TSRA FEW023CB

Observations et prévisions météorologiques de plus de 4000 aéroports (messages METAR et TAF).

Les stations disponibles sont représentées par des disques jaunes et rouges sur la carte.

Passer la souris dessus pour voir le nom de la station.

Cliquer dessus pour voir les observations et prévisions météorologiques.

Pour changer de carte: cliquez sur les boutons verts avec une croix noire pour zoomer, sur le bouton vert avec un tiret pour effectuer un zoom arrière, ou sur les flèches vertes pour les cartes adjacentes.


METAR-TAF: